This is the latest recevied weather packets stored in our database for station/object GW4003. If no packets are shown the sender has not sent any weather packets the latest 10 day(s).
| Time | Temp. | Humidity | Pressure | Rain* | Wind** | Luminosity | Snow |
|---|---|---|---|---|---|---|---|
| 1777414723 | 13.89° C | 39% | 1016.3 hPa | 0 mm | - | - | - |
| 1777414419 | 14.44° C | 40% | 1016.4 hPa | 0 mm | - | - | - |
| 1777414116 | 13.89° C | 40% | 1016.4 hPa | 0 mm | - | - | - |
| 1777413813 | 13.89° C | 41% | 1016.4 hPa | 0 mm | - | - | - |
| 1777413510 | 13.33° C | 42% | 1016.4 hPa | 0 mm | - | - | - |
| 1777413207 | 13.89° C | 40% | 1016.5 hPa | 0 mm | - | - | - |
| 1777412904 | 13.89° C | 41% | 1016.6 hPa | 0 mm | - | - | - |
| 1777412601 | 13.89° C | 41% | 1016.7 hPa | 0 mm | - | - | - |
| 1777412298 | 13.89° C | 39% | 1016.8 hPa | 0 mm | - | - | - |
| 1777411995 | 14.44° C | 40% | 1017 hPa | 0 mm | - | - | - |
| 1777411692 | 13.89° C | 41% | 1017 hPa | 0 mm | - | - | - |
| 1777411388 | 13.33° C | 44% | 1017 hPa | 0 mm | - | - | - |
| 1777411085 | 13.33° C | 43% | 1016.9 hPa | 0 mm | - | - | - |
| 1777410782 | 13.89° C | 43% | 1017.1 hPa | 0 mm | - | - | - |
| 1777410479 | 13.89° C | 43% | 1017.1 hPa | 0 mm | - | - | - |
| 1777410175 | 13.89° C | 43% | 1017.1 hPa | 0 mm | - | - | - |
| 1777409871 | 13.89° C | 41% | 1016.9 hPa | 0 mm | - | - | - |
| 1777409568 | 13.89° C | 42% | 1017 hPa | 0 mm | - | - | - |
| 1777409265 | 13.89° C | 43% | 1017.2 hPa | 0 mm | - | - | - |
| 1777408962 | 14.44° C | 41% | 1017.3 hPa | 0 mm | - | - | - |
| 1777408659 | 15° C | 41% | 1017.3 hPa | 0 mm | - | - | - |
| 1777408355 | 14.44° C | 42% | 1017.3 hPa | 0 mm | - | - | - |
| 1777408052 | 13.89° C | 44% | 1017.3 hPa | 0 mm | - | - | - |
| 1777407749 | 12.78° C | 46% | 1017.3 hPa | 0 mm | - | - | - |
| 1777407446 | 12.78° C | 46% | 1017.5 hPa | 0 mm | - | - | - |
* Rain latest hour (hover to see other rain measurements)
** Current wind speed in m/s (hover to see current wind gust speed)